Weather at Tubuai Airport

Public forecast

Using degrees Celsius for public forecast. Weather courtesy of forecast.io.

Closest aviation weather report (METAR) to Tubuai Airport

Closest report is Mauke Airport, 477.2 nm (883.7 km) WNW. Retrieved 2021/11/27 15:00 UTC (19 minutes ago):

NCMK 271500Z AUTO 05003KT //// ////// 25/24 Q1010

Closest aviation forecast (TAF) to Tubuai Airport

Closest forecast is Faa'a International Airport, 349.0 nm (646.3 km) N. Retrieved 2021/11/27 12:49 UTC (2 hours ago):

TAF NTAA 271100Z 2712/2818 VRB05KT 9999 FEW023 SCT050 BECMG 2720/2722 05015KT BECMG 2802/2804 VRB05KT